Time;durP1;ratioP1;P1;durP2;ratioP2;P2;SDS_P1;SDS_P2;PMS_P1;PMS_P2;Temp;Humidity;BMP_temperature;BMP_pressure;BME280_temperature;BME280_humidity;BME280_pressure;Samples;Min_cycle;Max_cycle;Signal;HPM_P1;HPM_P2
2022/08/16 00:00:28;;;;;;;6.65;3.85;;;;;;;;;;5027087;28;20233;-70
2022/08/16 00:02:55;;;;;;;4.82;3.75;;;;;;;;;;5027310;28;20514;-69
2022/08/16 00:05:22;;;;;;;3.90;3.50;;;;;;;;;;5027963;28;20045;-70
2022/08/16 00:07:48;;;;;;;4.28;3.63;;;;;;;;;;5027401;28;20037;-70
2022/08/16 00:10:15;;;;;;;4.05;3.65;;;;;;;;;;5026599;28;20148;-70
2022/08/16 00:12:41;;;;;;;4.20;3.80;;;;;;;;;;5027455;28;20029;-70
2022/08/16 00:15:30;;;;;;;6.25;3.83;;;;;;;;;;5027216;28;20032;-70
2022/08/16 00:17:55;;;;;;;4.82;4.07;;;;;;;;;;5027297;28;20466;-70
2022/08/16 00:20:21;;;;;;;4.97;3.58;;;;;;;;;;5026382;28;20029;-70
2022/08/16 00:22:47;;;;;;;5.50;3.75;;;;;;;;;;5027212;28;20021;-70
2022/08/16 00:25:15;;;;;;;3.67;3.38;;;;;;;;;;5026671;28;20056;-70
2022/08/16 00:27:41;;;;;;;4.50;3.95;;;;;;;;;;5026832;28;20033;-70
2022/08/16 00:30:11;;;;;;;7.20;4.05;;;;;;;;;;5027097;28;20048;-70
2022/08/16 00:32:39;;;;;;;4.57;3.95;;;;;;;;;;5026501;28;20088;-70
2022/08/16 00:35:07;;;;;;;4.80;4.30;;;;;;;;;;5026528;28;20029;-70
2022/08/16 00:37:33;;;;;;;6.63;4.60;;;;;;;;;;5027188;28;20022;-70
2022/08/16 00:39:58;;;;;;;4.53;3.95;;;;;;;;;;5026547;28;20479;-70
2022/08/16 00:42:26;;;;;;;6.50;4.00;;;;;;;;;;5026923;28;20094;-70
2022/08/16 00:44:55;;;;;;;6.85;4.07;;;;;;;;;;5026888;28;20086;-69
2022/08/16 00:47:23;;;;;;;4.65;3.97;;;;;;;;;;5026952;28;20259;-70
2022/08/16 00:49:48;;;;;;;7.70;4.20;;;;;;;;;;5026144;28;20116;-69
2022/08/16 00:52:14;;;;;;;6.00;4.30;;;;;;;;;;5026775;28;20159;-70
2022/08/16 00:54:39;;;;;;;5.45;4.22;;;;;;;;;;5026188;28;20502;-70
2022/08/16 00:57:06;;;;;;;6.07;3.97;;;;;;;;;;5026831;28;20040;-70
2022/08/16 00:59:34;;;;;;;4.45;3.45;;;;;;;;;;5026030;28;20085;-70
2022/08/16 01:02:03;;;;;;;5.47;4.07;;;;;;;;;;5025947;28;20568;-70
2022/08/16 01:04:28;;;;;;;6.28;3.92;;;;;;;;;;5026555;28;20124;-70
2022/08/16 01:06:54;;;;;;;9.75;4.00;;;;;;;;;;5026001;28;20076;-70
2022/08/16 01:09:20;;;;;;;5.38;3.80;;;;;;;;;;5026217;28;20175;-69
2022/08/16 01:11:45;;;;;;;4.72;3.83;;;;;;;;;;5025875;28;20563;-70
2022/08/16 01:14:25;;;;;;;5.70;4.15;;;;;;;;;;5026200;28;20064;-70
2022/08/16 01:16:51;;;;;;;4.93;4.10;;;;;;;;;;5025347;28;20025;-70
2022/08/16 01:19:27;;;;;;;4.70;4.00;;;;;;;;;;5026337;28;20029;-70
2022/08/16 01:22:00;;;;;;;7.15;4.90;;;;;;;;;;5025539;28;20032;-70
2022/08/16 01:24:39;;;;;;;8.43;4.70;;;;;;;;;;5026351;28;20028;-71
2022/08/16 01:27:11;;;;;;;6.65;4.45;;;;;;;;;;5026355;28;20084;-70
2022/08/16 01:29:46;;;;;;;6.88;4.32;;;;;;;;;;5025442;28;20029;-69
2022/08/16 01:32:11;;;;;;;5.43;4.63;;;;;;;;;;5025444;28;20025;-70
2022/08/16 01:34:37;;;;;;;5.15;4.50;;;;;;;;;;5026217;28;20059;-70
2022/08/16 01:37:07;;;;;;;5.93;4.60;;;;;;;;;;5025646;28;20088;-70
2022/08/16 01:39:34;;;;;;;9.75;4.45;;;;;;;;;;5025272;28;20108;-70
2022/08/16 01:41:59;;;;;;;7.10;4.03;;;;;;;;;;5007945;28;20026;-70
2022/08/16 01:44:25;;;;;;;5.18;4.57;;;;;;;;;;5025730;28;20013;-70
2022/08/16 01:46:52;;;;;;;8.75;4.68;;;;;;;;;;5025106;28;20079;-70
2022/08/16 01:49:27;;;;;;;5.20;4.70;;;;;;;;;;5025879;28;20044;-70
2022/08/16 01:51:57;;;;;;;6.38;5.05;;;;;;;;;;5025808;28;20365;-70
2022/08/16 01:54:22;;;;;;;5.65;4.95;;;;;;;;;;5025134;28;20025;-70
2022/08/16 01:56:48;;;;;;;5.22;4.72;;;;;;;;;;5025278;28;20072;-70
2022/08/16 01:59:14;;;;;;;5.28;4.78;;;;;;;;;;5025537;28;20296;-70
2022/08/16 02:01:40;;;;;;;5.50;4.82;;;;;;;;;;5025039;28;20291;-70
2022/08/16 02:04:05;;;;;;;6.50;4.75;;;;;;;;;;5025561;28;20484;-70
2022/08/16 02:06:31;;;;;;;6.72;4.85;;;;;;;;;;5024885;28;20029;-70
2022/08/16 02:08:56;;;;;;;8.60;6.07;;;;;;;;;;5025099;28;20034;-70
2022/08/16 02:11:23;;;;;;;7.07;4.82;;;;;;;;;;5025457;28;20491;-70
2022/08/16 02:13:49;;;;;;;6.38;5.03;;;;;;;;;;5025025;28;20021;-70
2022/08/16 02:16:14;;;;;;;7.75;5.47;;;;;;;;;;5025494;28;20807;-70
2022/08/16 02:18:40;;;;;;;7.80;5.00;;;;;;;;;;5024679;28;20491;-70
2022/08/16 02:21:05;;;;;;;5.57;4.97;;;;;;;;;;5024633;28;20284;-70
2022/08/16 02:23:34;;;;;;;6.20;4.72;;;;;;;;;;5025376;28;20132;-70
2022/08/16 02:26:00;;;;;;;5.70;4.70;;;;;;;;;;5024721;28;20026;-70
2022/08/16 02:28:25;;;;;;;6.22;4.82;;;;;;;;;;5025434;28;20163;-70
2022/08/16 02:30:55;;;;;;;6.38;4.68;;;;;;;;;;5025044;28;20033;-69
2022/08/16 02:33:22;;;;;;;9.02;5.47;;;;;;;;;;5028058;28;20028;-69
2022/08/16 02:35:47;;;;;;;9.95;5.15;;;;;;;;;;5029254;28;20036;-69
2022/08/16 02:38:12;;;;;;;6.85;5.40;;;;;;;;;;5028729;28;20029;-70
2022/08/16 02:40:38;;;;;;;6.38;5.30;;;;;;;;;;5028622;28;20033;-69
2022/08/16 02:43:04;;;;;;;6.18;5.32;;;;;;;;;;5029434;28;20017;-70
2022/08/16 02:45:29;;;;;;;6.22;5.63;;;;;;;;;;5028473;28;20399;-69
2022/08/16 02:47:55;;;;;;;8.02;5.28;;;;;;;;;;5029114;28;20021;-69
2022/08/16 02:50:20;;;;;;;5.78;5.07;;;;;;;;;;5028512;28;20025;-70
2022/08/16 02:52:46;;;;;;;9.52;5.68;;;;;;;;;;5028222;28;20028;-70
2022/08/16 02:55:12;;;;;;;5.28;4.82;;;;;;;;;;5028959;28;20200;-69
2022/08/16 02:57:38;;;;;;;5.78;5.20;;;;;;;;;;5028256;28;20043;-70
2022/08/16 03:00:08;;;;;;;6.15;5.30;;;;;;;;;;5028185;28;20092;-70
2022/08/16 03:02:34;;;;;;;7.93;5.10;;;;;;;;;;5028926;28;20383;-70
2022/08/16 03:05:00;;;;;;;6.05;5.45;;;;;;;;;;5028237;28;20022;-70
2022/08/16 03:07:25;;;;;;;6.97;5.38;;;;;;;;;;5028443;28;20033;-70
2022/08/16 03:09:50;;;;;;;6.68;5.68;;;;;;;;;;5028380;28;20415;-70
2022/08/16 03:12:18;;;;;;;6.38;5.13;;;;;;;;;;5028004;28;20036;-69
2022/08/16 03:14:43;;;;;;;6.25;5.20;;;;;;;;;;5028562;28;20444;-70
2022/08/16 03:17:08;;;;;;;6.50;5.32;;;;;;;;;;5027968;28;20043;-70
2022/08/16 03:19:34;;;;;;;5.57;5.07;;;;;;;;;;5028027;28;20033;-69
2022/08/16 03:21:59;;;;;;;6.35;5.50;;;;;;;;;;5028321;28;20511;-70
2022/08/16 03:24:25;;;;;;;6.85;5.70;;;;;;;;;;5028385;28;20499;-70
2022/08/16 03:26:50;;;;;;;8.48;5.50;;;;;;;;;;5028854;28;20029;-70
2022/08/16 03:29:16;;;;;;;8.57;5.97;;;;;;;;;;5027868;28;20137;-70
2022/08/16 03:31:41;;;;;;;6.10;5.50;;;;;;;;;;5028031;28;20108;-69
2022/08/16 03:34:07;;;;;;;7.60;5.53;;;;;;;;;;5028037;28;20552;-70
2022/08/16 03:36:32;;;;;;;8.75;6.10;;;;;;;;;;5027225;28;20445;-70
2022/08/16 03:38:57;;;;;;;6.60;5.63;;;;;;;;;;5028186;28;20558;-70
2022/08/16 03:41:25;;;;;;;8.38;6.18;;;;;;;;;;5027259;28;20076;-70
2022/08/16 03:43:51;;;;;;;6.97;5.85;;;;;;;;;;5027104;28;20392;-70
2022/08/16 03:46:19;;;;;;;9.18;6.20;;;;;;;;;;5027988;28;20025;-70
2022/08/16 03:48:44;;;;;;;8.63;5.70;;;;;;;;;;5027377;28;20071;-70
2022/08/16 03:51:10;;;;;;;7.38;5.63;;;;;;;;;;5027380;28;20025;-70
2022/08/16 03:53:36;;;;;;;7.43;6.50;;;;;;;;;;5027594;28;20072;-70
2022/08/16 03:56:02;;;;;;;6.05;5.45;;;;;;;;;;5027177;28;20472;-69
2022/08/16 03:58:28;;;;;;;7.72;5.88;;;;;;;;;;5028005;28;20574;-70
2022/08/16 04:00:54;;;;;;;8.27;6.13;;;;;;;;;;5027296;28;20065;-70
2022/08/16 04:03:20;;;;;;;6.93;5.97;;;;;;;;;;5028054;28;20021;-69
2022/08/16 04:05:47;;;;;;;8.75;6.75;;;;;;;;;;5026882;28;20519;-70
2022/08/16 04:08:13;;;;;;;7.43;6.32;;;;;;;;;;5027153;28;20053;-69
2022/08/16 04:10:40;;;;;;;7.97;6.10;;;;;;;;;;5027590;28;20049;-70
2022/08/16 04:13:05;;;;;;;7.32;6.03;;;;;;;;;;5026965;28;20087;-70
2022/08/16 04:15:31;;;;;;;8.63;5.65;;;;;;;;;;5027349;28;20029;-69
2022/08/16 04:17:58;;;;;;;7.20;6.30;;;;;;;;;;5027565;28;20033;-70
2022/08/16 04:20:24;;;;;;;6.75;5.97;;;;;;;;;;5026889;28;20404;-70
2022/08/16 04:22:50;;;;;;;6.72;6.03;;;;;;;;;;5027347;28;20021;-69
2022/08/16 04:25:16;;;;;;;7.97;6.47;;;;;;;;;;5027244;28;20521;-70
2022/08/16 04:27:41;;;;;;;6.88;6.22;;;;;;;;;;5026667;28;20113;-69
2022/08/16 04:30:10;;;;;;;8.98;5.88;;;;;;;;;;5026990;28;20025;-70
2022/08/16 04:32:36;;;;;;;7.43;6.32;;;;;;;;;;5026535;28;20481;-69
2022/08/16 04:35:03;;;;;;;10.52;6.82;;;;;;;;;;5026809;28;20032;-69
2022/08/16 04:37:28;;;;;;;7.53;5.97;;;;;;;;;;5027112;28;20064;-70
2022/08/16 04:39:53;;;;;;;11.23;6.93;;;;;;;;;;5026445;28;20056;-69
2022/08/16 04:42:19;;;;;;;10.07;6.70;;;;;;;;;;5026882;28;20047;-70
2022/08/16 04:44:45;;;;;;;6.07;5.43;;;;;;;;;;5026610;28;20521;-69
2022/08/16 04:47:11;;;;;;;7.18;5.88;;;;;;;;;;5026394;28;20035;-69
2022/08/16 04:49:36;;;;;;;6.55;5.32;;;;;;;;;;5026813;28;20498;-69
2022/08/16 04:52:02;;;;;;;7.75;5.63;;;;;;;;;;5026511;28;20030;-70
2022/08/16 04:54:27;;;;;;;7.55;5.85;;;;;;;;;;5026562;28;20025;-69
2022/08/16 04:56:52;;;;;;;9.00;6.07;;;;;;;;;;5026492;28;20087;-70
2022/08/16 04:59:18;;;;;;;6.03;5.43;;;;;;;;;;5026471;28;20386;-70
2022/08/16 05:01:44;;;;;;;9.43;5.60;;;;;;;;;;5026270;28;20031;-70
2022/08/16 05:04:09;;;;;;;9.05;5.70;;;;;;;;;;5026002;28;20104;-70
2022/08/16 05:06:34;;;;;;;7.65;5.25;;;;;;;;;;5026921;28;20033;-69
2022/08/16 05:09:00;;;;;;;6.13;5.32;;;;;;;;;;5026120;28;20538;-69
2022/08/16 05:11:26;;;;;;;10.50;6.05;;;;;;;;;;5025601;28;20506;-69
2022/08/16 05:13:51;;;;;;;6.72;5.55;;;;;;;;;;5026573;28;20033;-69
2022/08/16 05:16:21;;;;;;;7.45;5.88;;;;;;;;;;5026325;28;20025;-69
2022/08/16 05:18:47;;;;;;;6.07;5.47;;;;;;;;;;5026107;28;20040;-69
2022/08/16 05:21:13;;;;;;;7.38;5.35;;;;;;;;;;5026100;28;20033;-69
2022/08/16 05:23:38;;;;;;;7.82;5.93;;;;;;;;;;5026103;28;20033;-69
2022/08/16 05:26:04;;;;;;;8.57;5.43;;;;;;;;;;5025986;28;20103;-69
2022/08/16 05:28:29;;;;;;;6.22;5.57;;;;;;;;;;5025934;28;20070;-69
2022/08/16 05:30:55;;;;;;;9.23;5.80;;;;;;;;;;5025506;28;20060;-69
2022/08/16 05:33:21;;;;;;;7.30;5.88;;;;;;;;;;5025954;28;20475;-69
2022/08/16 05:35:48;;;;;;;7.15;5.93;;;;;;;;;;5025865;28;20059;-69
2022/08/16 05:38:13;;;;;;;8.13;6.03;;;;;;;;;;5025802;28;20502;-69
2022/08/16 05:40:38;;;;;;;7.53;5.85;;;;;;;;;;5025618;28;20029;-69
2022/08/16 05:43:04;;;;;;;6.72;6.03;;;;;;;;;;5025469;28;20033;-69
2022/08/16 05:45:29;;;;;;;7.47;6.25;;;;;;;;;;5026003;28;20445;-69
2022/08/16 05:47:55;;;;;;;7.45;6.60;;;;;;;;;;5025492;28;20505;-69
2022/08/16 05:50:20;;;;;;;9.07;6.97;;;;;;;;;;5025456;28;20025;-69
2022/08/16 05:52:45;;;;;;;7.25;6.47;;;;;;;;;;5025627;28;20529;-69
2022/08/16 05:55:11;;;;;;;8.07;6.78;;;;;;;;;;5025155;28;20025;-70
2022/08/16 05:57:36;;;;;;;8.60;6.78;;;;;;;;;;5025737;28;20104;-69
2022/08/16 06:00:06;;;;;;;8.05;7.00;;;;;;;;;;5024943;28;20021;-69
2022/08/16 06:02:32;;;;;;;9.00;6.75;;;;;;;;;;5025470;28;20223;-69
2022/08/16 06:04:58;;;;;;;7.68;6.95;;;;;;;;;;5025725;28;20442;-69
2022/08/16 06:07:23;;;;;;;8.90;7.10;;;;;;;;;;5024874;28;20043;-69
2022/08/16 06:09:49;;;;;;;9.13;8.18;;;;;;;;;;5025709;28;20040;-69
2022/08/16 06:12:15;;;;;;;11.68;8.80;;;;;;;;;;5013504;28;20100;-69
2022/08/16 06:14:40;;;;;;;8.85;7.78;;;;;;;;;;5004468;28;20036;-70
2022/08/16 06:17:06;;;;;;;9.95;7.85;;;;;;;;;;4998241;28;20033;-70
2022/08/16 06:19:31;;;;;;;8.75;7.88;;;;;;;;;;5016352;28;20037;-69
2022/08/16 06:21:57;;;;;;;9.77;8.48;;;;;;;;;;5017534;28;20386;-69
2022/08/16 06:24:22;;;;;;;9.32;8.23;;;;;;;;;;5021790;28;20025;-70
2022/08/16 06:26:47;;;;;;;8.27;7.47;;;;;;;;;;5020022;28;20260;-70
2022/08/16 06:29:13;;;;;;;10.38;8.07;;;;;;;;;;5003481;28;20567;-69
2022/08/16 06:31:38;;;;;;;9.20;7.63;;;;;;;;;;5018875;28;20079;-69
2022/08/16 06:34:03;;;;;;;9.18;8.02;;;;;;;;;;5003547;28;20022;-70
2022/08/16 06:36:29;;;;;;;9.30;7.60;;;;;;;;;;5021594;28;20040;-69
2022/08/16 06:38:54;;;;;;;9.65;7.47;;;;;;;;;;5024642;28;20104;-70
2022/08/16 06:41:19;;;;;;;8.80;7.68;;;;;;;;;;5030209;28;20502;-70
2022/08/16 06:43:45;;;;;;;9.38;8.38;;;;;;;;;;5041815;28;20307;-70
2022/08/16 06:46:23;;;;;;;11.32;8.23;;;;;;;;;;5020236;28;20331;-70
2022/08/16 06:48:48;;;;;;;10.55;7.97;;;;;;;;;;5021523;28;20049;-69
2022/08/16 06:51:13;;;;;;;11.43;7.63;;;;;;;;;;5010573;28;20026;-69
2022/08/16 06:53:39;;;;;;;10.18;8.65;;;;;;;;;;5002627;28;20033;-69
2022/08/16 06:56:06;;;;;;;11.45;8.27;;;;;;;;;;5001287;28;20053;-70
2022/08/16 06:58:32;;;;;;;11.25;7.93;;;;;;;;;;5004542;28;20029;-70
2022/08/16 07:01:00;;;;;;;10.43;8.27;;;;;;;;;;5014300;28;20053;-70
2022/08/16 07:03:26;;;;;;;8.75;7.80;;;;;;;;;;5021419;28;20017;-70
2022/08/16 07:05:51;;;;;;;9.52;7.47;;;;;;;;;;5014901;28;20041;-70
2022/08/16 07:08:17;;;;;;;9.38;7.70;;;;;;;;;;5019497;28;20033;-70
2022/08/16 07:10:42;;;;;;;7.53;6.82;;;;;;;;;;5013412;28;20034;-69
2022/08/16 07:13:07;;;;;;;7.70;6.93;;;;;;;;;;5013445;28;20127;-70
2022/08/16 07:15:33;;;;;;;8.90;7.18;;;;;;;;;;5017766;28;20033;-70
2022/08/16 07:18:00;;;;;;;9.43;7.47;;;;;;;;;;5016454;28;20116;-70
2022/08/16 07:20:26;;;;;;;7.30;6.60;;;;;;;;;;5023692;28;20041;-70
2022/08/16 07:22:54;;;;;;;9.27;6.85;;;;;;;;;;5023135;28;20193;-70
2022/08/16 07:25:20;;;;;;;9.13;6.85;;;;;;;;;;5015293;28;20118;-70
2022/08/16 07:27:45;;;;;;;7.30;6.50;;;;;;;;;;5013902;28;20499;-70
2022/08/16 07:30:13;;;;;;;8.43;7.57;;;;;;;;;;5009824;28;20361;-70
2022/08/16 07:32:38;;;;;;;8.23;7.43;;;;;;;;;;5021358;28;20057;-70
2022/08/16 07:35:04;;;;;;;8.48;7.50;;;;;;;;;;5027319;28;20030;-70
2022/08/16 07:37:30;;;;;;;9.27;7.78;;;;;;;;;;5025001;28;20321;-69
2022/08/16 07:39:55;;;;;;;9.27;7.43;;;;;;;;;;5026763;28;20037;-70
2022/08/16 07:42:21;;;;;;;9.82;7.57;;;;;;;;;;5032829;28;20033;-70
2022/08/16 07:44:47;;;;;;;7.95;7.15;;;;;;;;;;5024843;28;20055;-70
2022/08/16 07:47:13;;;;;;;8.90;7.30;;;;;;;;;;5027630;28;20104;-69
2022/08/16 07:49:38;;;;;;;11.07;7.80;;;;;;;;;;5025434;28;20518;-70
2022/08/16 07:52:03;;;;;;;8.23;7.43;;;;;;;;;;5025781;28;20025;-72
2022/08/16 07:54:29;;;;;;;8.15;7.35;;;;;;;;;;5026197;28;20029;-71
2022/08/16 07:56:54;;;;;;;12.30;7.43;;;;;;;;;;5024491;28;20052;-70
2022/08/16 07:59:19;;;;;;;8.52;7.63;;;;;;;;;;5013895;28;20267;-71
2022/08/16 08:01:45;;;;;;;7.72;6.70;;;;;;;;;;5018771;28;20052;-70
2022/08/16 08:04:12;;;;;;;8.68;7.50;;;;;;;;;;5026723;28;20471;-71
2022/08/16 08:06:38;;;;;;;7.60;6.90;;;;;;;;;;5015162;28;20032;-71
2022/08/16 08:09:04;;;;;;;7.53;6.78;;;;;;;;;;5018014;28;20041;-71
2022/08/16 08:11:30;;;;;;;7.00;6.25;;;;;;;;;;5024053;28;20026;-70
2022/08/16 08:14:00;;;;;;;7.20;6.30;;;;;;;;;;5024791;28;20028;-71
2022/08/16 08:16:25;;;;;;;8.13;6.15;;;;;;;;;;5034063;28;20104;-70
2022/08/16 08:18:53;;;;;;;6.78;6.03;;;;;;;;;;5024325;28;20095;-70
2022/08/16 08:21:20;;;;;;;5.88;5.25;;;;;;;;;;5019967;28;20030;-71
2022/08/16 08:23:46;;;;;;;6.05;4.97;;;;;;;;;;5020792;28;20487;-71
2022/08/16 08:26:12;;;;;;;6.15;4.80;;;;;;;;;;5025770;28;20040;-71
2022/08/16 08:28:37;;;;;;;10.02;4.60;;;;;;;;;;5021878;28;20067;-71
2022/08/16 08:31:03;;;;;;;5.07;4.55;;;;;;;;;;5025711;28;20029;-71
2022/08/16 08:33:30;;;;;;;6.88;4.20;;;;;;;;;;5020875;28;20033;-72
2022/08/16 08:35:57;;;;;;;9.32;4.70;;;;;;;;;;5018843;28;20035;-71
2022/08/16 08:38:22;;;;;;;4.82;4.30;;;;;;;;;;5028220;28;20033;-71
2022/08/16 08:40:48;;;;;;;4.72;4.30;;;;;;;;;;5024440;28;20090;-71
2022/08/16 08:43:13;;;;;;;4.85;4.45;;;;;;;;;;5007069;28;20392;-71
2022/08/16 08:45:39;;;;;;;6.90;4.18;;;;;;;;;;5006096;28;20030;-71
2022/08/16 08:48:06;;;;;;;5.38;4.85;;;;;;;;;;5015529;28;20576;-71
2022/08/16 08:50:31;;;;;;;5.25;3.67;;;;;;;;;;5017304;28;20038;-71
2022/08/16 08:52:56;;;;;;;6.00;4.60;;;;;;;;;;5027827;28;20022;-71
2022/08/16 08:55:22;;;;;;;5.35;4.40;;;;;;;;;;5026113;28;20063;-71
2022/08/16 08:57:49;;;;;;;3.72;3.42;;;;;;;;;;5025927;28;20033;-72
2022/08/16 09:00:17;;;;;;;4.80;3.42;;;;;;;;;;5019910;28;20029;-71
2022/08/16 09:02:43;;;;;;;5.00;3.78;;;;;;;;;;5019949;28;20128;-72
2022/08/16 09:05:09;;;;;;;3.90;3.30;;;;;;;;;;5025236;28;20323;-71
2022/08/16 09:07:37;;;;;;;3.35;3.08;;;;;;;;;;5025278;28;20036;-72
2022/08/16 09:10:05;;;;;;;8.43;3.53;;;;;;;;;;5025886;28;20117;-71
2022/08/16 09:12:30;;;;;;;3.70;3.20;;;;;;;;;;5025827;28;20095;-69
2022/08/16 09:14:55;;;;;;;4.57;3.20;;;;;;;;;;5009790;28;20030;-69
2022/08/16 09:17:21;;;;;;;3.70;3.22;;;;;;;;;;5017602;28;20037;-68
2022/08/16 09:19:46;;;;;;;3.42;2.88;;;;;;;;;;5019157;28;20140;-70
2022/08/16 09:22:11;;;;;;;3.20;2.53;;;;;;;;;;5006419;28;20080;-72
2022/08/16 09:24:37;;;;;;;3.00;2.63;;;;;;;;;;5027878;28;20533;-70
2022/08/16 09:27:03;;;;;;;4.45;2.78;;;;;;;;;;5043982;28;20250;-71
2022/08/16 09:29:28;;;;;;;3.00;2.60;;;;;;;;;;5021266;28;20033;-71
2022/08/16 09:31:56;;;;;;;2.72;2.53;;;;;;;;;;5029890;28;20025;-68
2022/08/16 09:34:23;;;;;;;3.85;2.42;;;;;;;;;;5018847;28;20034;-70
2022/08/16 09:36:48;;;;;;;4.47;2.63;;;;;;;;;;5040892;28;20179;-70
2022/08/16 09:39:14;;;;;;;4.45;2.65;;;;;;;;;;5018906;28;20541;-70
2022/08/16 09:41:40;;;;;;;3.47;2.90;;;;;;;;;;5015327;28;20028;-71
2022/08/16 09:44:06;;;;;;;3.65;2.67;;;;;;;;;;5029107;28;20033;-70
2022/08/16 09:46:32;;;;;;;3.63;2.58;;;;;;;;;;5027711;28;20399;-70
2022/08/16 09:48:58;;;;;;;2.50;2.30;;;;;;;;;;5019956;28;20048;-71
2022/08/16 09:51:27;;;;;;;3.08;2.08;;;;;;;;;;5017112;28;20323;-71
2022/08/16 09:53:54;;;;;;;6.47;2.30;;;;;;;;;;5028508;28;20531;-70
2022/08/16 09:56:29;;;;;;;3.28;2.03;;;;;;;;;;5032839;28;20443;-68
2022/08/16 09:58:55;;;;;;;2.00;1.90;;;;;;;;;;5025702;28;20040;-71
2022/08/16 10:01:21;;;;;;;3.50;1.90;;;;;;;;;;5026362;28;20482;-69
2022/08/16 10:03:46;;;;;;;2.60;2.05;;;;;;;;;;5022977;28;20076;-71
2022/08/16 10:06:12;;;;;;;2.47;1.85;;;;;;;;;;5017512;28;20030;-69
2022/08/16 10:08:37;;;;;;;2.70;1.90;;;;;;;;;;5018205;28;20016;-67
2022/08/16 10:13:47;;;;;;;3.53;2.00;;;;;;;;;;5016832;28;20072;-71
2022/08/16 10:16:12;;;;;;;2.33;1.90;;;;;;;;;;5021658;28;20056;-70
2022/08/16 10:18:39;;;;;;;3.92;2.00;;;;;;;;;;5011066;28;20052;-71
2022/08/16 10:21:05;;;;;;;2.28;1.80;;;;;;;;;;5015384;28;20087;-69
2022/08/16 10:23:30;;;;;;;2.10;1.90;;;;;;;;;;5018022;28;20030;-71
2022/08/16 10:25:56;;;;;;;2.60;2.00;;;;;;;;;;5015018;28;20562;-70
2022/08/16 10:28:21;;;;;;;1.73;1.60;;;;;;;;;;5021077;28;20029;-70
2022/08/16 10:30:46;;;;;;;1.80;1.70;;;;;;;;;;5021222;28;20033;-71
2022/08/16 10:33:13;;;;;;;1.98;1.60;;;;;;;;;;5016355;28;20022;-70
2022/08/16 10:35:40;;;;;;;1.75;1.60;;;;;;;;;;5017946;28;20068;-72
2022/08/16 10:38:05;;;;;;;2.03;1.50;;;;;;;;;;5016278;28;20022;-71
2022/08/16 10:40:31;;;;;;;2.93;1.90;;;;;;;;;;5012486;28;20627;-68
2022/08/16 10:42:59;;;;;;;2.33;1.60;;;;;;;;;;5022379;28;20355;-71
2022/08/16 10:45:26;;;;;;;1.80;1.70;;;;;;;;;;5021855;28;20065;-70
2022/08/16 10:47:52;;;;;;;1.70;1.58;;;;;;;;;;5019501;28;20026;-71
2022/08/16 10:50:17;;;;;;;3.42;1.90;;;;;;;;;;5024689;28;20484;-71
2022/08/16 10:52:42;;;;;;;2.50;1.60;;;;;;;;;;5024219;28;20036;-71
2022/08/16 10:55:10;;;;;;;1.85;1.60;;;;;;;;;;5023556;28;20329;-71
2022/08/16 10:57:35;;;;;;;2.00;1.67;;;;;;;;;;5023043;28;20517;-71
2022/08/16 11:00:06;;;;;;;3.40;1.58;;;;;;;;;;5028224;28;20038;-70
2022/08/16 11:02:31;;;;;;;3.38;1.90;;;;;;;;;;5034785;28;20488;-71
2022/08/16 11:04:58;;;;;;;2.83;1.70;;;;;;;;;;5029689;28;20037;-71
2022/08/16 11:07:23;;;;;;;1.92;1.58;;;;;;;;;;5026646;28;20033;-70
2022/08/16 11:09:49;;;;;;;4.80;2.10;;;;;;;;;;5029496;28;20449;-72
2022/08/16 11:12:14;;;;;;;2.27;1.80;;;;;;;;;;5043284;28;20582;-70
2022/08/16 11:14:39;;;;;;;3.20;2.00;;;;;;;;;;5031634;28;20026;-70
2022/08/16 11:17:05;;;;;;;2.07;1.50;;;;;;;;;;5031361;28;20418;-71
2022/08/16 11:19:31;;;;;;;4.00;1.70;;;;;;;;;;5038350;28;20033;-71
2022/08/16 11:21:57;;;;;;;2.30;1.73;;;;;;;;;;5045641;28;20032;-71
2022/08/16 11:24:22;;;;;;;3.50;1.92;;;;;;;;;;5048187;28;20032;-70
2022/08/16 11:26:49;;;;;;;1.92;1.67;;;;;;;;;;5037582;28;20041;-71
2022/08/16 11:29:14;;;;;;;1.67;1.58;;;;;;;;;;5042492;28;20041;-70
2022/08/16 11:31:40;;;;;;;3.08;1.80;;;;;;;;;;5035299;28;20033;-70
2022/08/16 11:34:05;;;;;;;2.47;1.70;;;;;;;;;;5046414;28;20067;-71
2022/08/16 11:36:30;;;;;;;2.03;1.50;;;;;;;;;;5044155;28;20137;-70
2022/08/16 11:38:58;;;;;;;2.40;1.70;;;;;;;;;;5042928;28;20398;-70
2022/08/16 11:41:24;;;;;;;3.25;1.90;;;;;;;;;;5050535;28;20792;-71
2022/08/16 11:43:49;;;;;;;2.33;1.85;;;;;;;;;;5051208;28;20033;-70
2022/08/16 11:46:16;;;;;;;2.67;2.20;;;;;;;;;;5040594;28;20026;-71
2022/08/16 11:48:44;;;;;;;1.63;1.50;;;;;;;;;;5035710;28;20035;-70
2022/08/16 11:51:11;;;;;;;2.80;1.80;;;;;;;;;;5029166;28;20106;-70
2022/08/16 11:53:36;;;;;;;2.22;1.60;;;;;;;;;;5024534;28;20144;-70
2022/08/16 11:56:03;;;;;;;2.25;1.77;;;;;;;;;;5026102;28;20124;-69
2022/08/16 11:58:30;;;;;;;2.28;1.60;;;;;;;;;;5033565;28;20037;-70
2022/08/16 12:00:57;;;;;;;3.35;1.70;;;;;;;;;;5031604;28;20041;-69
2022/08/16 12:03:25;;;;;;;2.08;1.50;;;;;;;;;;5029156;28;20476;-70
2022/08/16 12:05:52;;;;;;;1.77;1.60;;;;;;;;;;5038477;28;20052;-70
2022/08/16 12:08:18;;;;;;;2.17;1.40;;;;;;;;;;5016782;28;20040;-71
2022/08/16 12:10:45;;;;;;;2.28;1.65;;;;;;;;;;5038312;28;20017;-70
2022/08/16 12:13:11;;;;;;;2.45;1.70;;;;;;;;;;5035315;28;20060;-69
2022/08/16 12:15:37;;;;;;;3.05;1.85;;;;;;;;;;5029906;28;20068;-68
2022/08/16 12:18:02;;;;;;;2.30;1.50;;;;;;;;;;5035071;28;20033;-70
2022/08/16 12:20:31;;;;;;;2.72;1.48;;;;;;;;;;5031796;28;20040;-69
2022/08/16 12:22:57;;;;;;;2.33;1.50;;;;;;;;;;5010138;28;20026;-69
2022/08/16 12:25:25;;;;;;;2.80;1.80;;;;;;;;;;5019514;28;20040;-70
2022/08/16 12:27:51;;;;;;;1.98;1.75;;;;;;;;;;5035340;28;20036;-69
2022/08/16 12:30:20;;;;;;;2.78;1.85;;;;;;;;;;5046565;28;20033;-69
2022/08/16 12:32:45;;;;;;;2.33;1.65;;;;;;;;;;5041009;28;20021;-69
2022/08/16 12:35:14;;;;;;;2.97;1.73;;;;;;;;;;5024655;28;20030;-69
2022/08/16 12:37:42;;;;;;;2.95;1.80;;;;;;;;;;5032031;28;20029;-69
2022/08/16 12:40:09;;;;;;;2.75;1.55;;;;;;;;;;5044898;28;20025;-69
2022/08/16 12:42:35;;;;;;;1.80;1.70;;;;;;;;;;5049634;28;20037;-70
2022/08/16 12:45:05;;;;;;;1.90;1.70;;;;;;;;;;5049481;28;20025;-69
2022/08/16 12:50:14;;;;;;;1.55;1.45;;;;;;;;;;5049195;28;20565;-69
2022/08/16 12:52:39;;;;;;;2.10;1.50;;;;;;;;;;5044662;28;20021;-69
2022/08/16 12:55:05;;;;;;;1.77;1.57;;;;;;;;;;5025281;28;20033;-70
2022/08/16 12:57:31;;;;;;;1.73;1.50;;;;;;;;;;5036699;28;20289;-69
2022/08/16 12:59:58;;;;;;;1.83;1.65;;;;;;;;;;5037525;28;20501;-70
2022/08/16 13:02:23;;;;;;;1.63;1.45;;;;;;;;;;5029197;28;20033;-71
2022/08/16 13:04:48;;;;;;;2.08;1.65;;;;;;;;;;5029089;28;20037;-70
2022/08/16 13:07:14;;;;;;;1.75;1.58;;;;;;;;;;5035925;28;20039;-70
2022/08/16 13:09:50;;;;;;;1.70;1.60;;;;;;;;;;5032426;28;20155;-69
2022/08/16 13:12:22;;;;;;;2.85;1.58;;;;;;;;;;5049298;28;20391;-69
2022/08/16 13:14:49;;;;;;;1.60;1.50;;;;;;;;;;5040747;28;20025;-69
2022/08/16 13:17:19;;;;;;;1.52;1.40;;;;;;;;;;5034628;28;20025;-68
2022/08/16 13:19:45;;;;;;;2.17;1.77;;;;;;;;;;5034831;28;20061;-68
2022/08/16 13:22:12;;;;;;;1.50;1.40;;;;;;;;;;5025533;28;20486;-69
2022/08/16 13:24:37;;;;;;;1.90;1.70;;;;;;;;;;5038655;28;20021;-69
2022/08/16 13:27:03;;;;;;;1.95;1.60;;;;;;;;;;5046008;28;20078;-69
2022/08/16 13:29:28;;;;;;;2.05;1.50;;;;;;;;;;5040402;28;20305;-69
2022/08/16 13:31:54;;;;;;;1.83;1.60;;;;;;;;;;5048668;28;20020;-68
2022/08/16 13:34:19;;;;;;;2.97;2.20;;;;;;;;;;5048363;28;20846;-68
2022/08/16 13:36:44;;;;;;;2.60;1.73;;;;;;;;;;5040218;28;20498;-69
2022/08/16 13:39:10;;;;;;;1.73;1.60;;;;;;;;;;5033643;28;20156;-69
2022/08/16 13:41:36;;;;;;;2.20;1.60;;;;;;;;;;5035861;28;20273;-69
2022/08/16 13:44:02;;;;;;;3.33;1.50;;;;;;;;;;5026993;28;20037;-69
2022/08/16 13:46:30;;;;;;;3.25;1.55;;;;;;;;;;5026207;28;20034;-69
2022/08/16 13:48:56;;;;;;;1.88;1.77;;;;;;;;;;5037089;28;20029;-69
2022/08/16 13:51:25;;;;;;;2.38;1.50;;;;;;;;;;5030921;28;20038;-69
2022/08/16 13:53:55;;;;;;;2.50;1.60;;;;;;;;;;5028562;28;20108;-68
2022/08/16 13:56:22;;;;;;;3.70;1.90;;;;;;;;;;5027703;28;20043;-69
2022/08/16 13:58:49;;;;;;;3.00;1.50;;;;;;;;;;5034554;28;20036;-70
2022/08/16 14:01:15;;;;;;;2.55;1.90;;;;;;;;;;5029475;28;20076;-69
2022/08/16 14:03:41;;;;;;;2.83;1.70;;;;;;;;;;5027902;28;20104;-68
2022/08/16 14:06:08;;;;;;;2.10;1.73;;;;;;;;;;5028061;28;20507;-69
2022/08/16 14:08:34;;;;;;;1.70;1.60;;;;;;;;;;5038169;28;20029;-69
2022/08/16 14:10:59;;;;;;;2.30;1.90;;;;;;;;;;5042525;28;20052;-69
2022/08/16 14:13:25;;;;;;;1.70;1.60;;;;;;;;;;5046919;28;20056;-69
2022/08/16 14:15:50;;;;;;;2.93;1.80;;;;;;;;;;5022044;28;20273;-69
2022/08/16 14:18:15;;;;;;;2.08;1.85;;;;;;;;;;5035074;28;20302;-70
2022/08/16 14:20:41;;;;;;;4.78;2.00;;;;;;;;;;5031888;28;20022;-68
2022/08/16 14:23:06;;;;;;;4.50;2.15;;;;;;;;;;5027979;28;20044;-68
2022/08/16 14:25:32;;;;;;;2.88;1.90;;;;;;;;;;5028346;28;20068;-69
2022/08/16 14:27:57;;;;;;;2.27;1.90;;;;;;;;;;5016649;28;20432;-69
2022/08/16 14:30:24;;;;;;;5.55;4.57;;;;;;;;;;5039119;28;20375;-68
2022/08/16 14:32:49;;;;;;;2.20;1.90;;;;;;;;;;5032171;28;20087;-69
2022/08/16 14:35:20;;;;;;;2.22;2.00;;;;;;;;;;5032097;28;20073;-71
2022/08/16 14:37:45;;;;;;;3.10;1.80;;;;;;;;;;5029025;28;20103;-69
2022/08/16 14:40:14;;;;;;;2.30;1.73;;;;;;;;;;5036454;28;20609;-69
2022/08/16 14:42:40;;;;;;;2.58;2.00;;;;;;;;;;5023692;28;20072;-71